New England — V7HF3 — position and weather

sailwx.info

Track history (hours):
 
Tides and Currents Weather Stations Pressure Air Temp Water Temp Dewpoint Dewpoint Depression Visibility Wind Speed Wind Dir Waves Ship Positions

New England

Last reported at 2016-May-26 22:13 UTC. Time now 2016-May-27 00:26 UTC.
Position N 42°23' W 071°01'.

Length 182 m; draft 10.7 m.

Type: Ship. MMSI: 538002220.

Date/timePositionNaut miles runAvg speedWind from/ knotsBaromVisibWave heightAir tempDewpointWater temp
2016-May-26 22:13N 42°23' W 071°01'0 0.0
2016-May-26 21:31N 42°23' W 071°01'0 0.0
2016-May-26 20:31N 42°23' W 071°01'0 0.0
2016-May-26 19:30N 42°23' W 071°01'0 0.0
2016-May-26 18:30N 42°23' W 071°01'0 0.0
2016-May-26 17:29N 42°23' W 071°01'0 0.0
2016-May-26 16:29N 42°23' W 071°01'0 0.0
2016-May-26 15:22N 42°23' W 071°01'0 0.0
2016-May-26 14:28N 42°23' W 071°01'0 0.0
2016-May-26 13:28N 42°23' W 071°01'0 0.0
2016-May-26 12:33N 42°23' W 071°01'0 0.0
2016-May-26 11:33N 42°23' W 071°01'0 0.0
2016-May-26 10:32N 42°23' W 071°01'1 0.1
2016-May-26 01:16N 42°24' W 071°01'0 0.0
2016-May-26 00:21N 42°24' W 071°01'0 0.0
2016-May-25 23:33N 42°24' W 071°01'0 0.0
2016-May-25 22:33N 42°24' W 071°01'0 0.0
2016-May-25 21:32N 42°24' W 071°01'0 0.0
2016-May-25 20:14N 42°24' W 071°01'0 0.0
2016-May-25 19:24N 42°24' W 071°01'0 0.0
2016-May-25 18:31N 42°24' W 071°01'0 0.0
2016-May-25 17:25N 42°24' W 071°01'0 0.5
2016-May-25 16:33N 42°23' W 071°01'4 3.8
2016-May-25 15:33N 42°20' W 070°59'1 0.7
2016-May-25 14:33N 42°20' W 070°58'0 0.0
2016-May-25 13:33N 42°20' W 070°58'0 0.2
2016-May-25 12:32N 42°20' W 070°58'0 0.0
2016-May-25 11:26N 42°20' W 070°58'0 0.0
2016-May-25 10:28N 42°20' W 070°58'0 0.0
2016-May-25 09:31N 42°20' W 070°58'0 0.0
2016-May-25 08:33N 42°20' W 070°58'0 0.0
2016-May-25 07:33N 42°20' W 070°58'0 0.1
2016-May-25 06:33N 42°20' W 070°58'0 0.0
2016-May-25 05:32N 42°20' W 070°58'0 0.0
2016-May-25 04:32N 42°20' W 070°58'0 0.0
2016-May-25 03:31N 42°20' W 070°58'0 0.0
2016-May-25 02:31N 42°20' W 070°58'0 0.0
2016-May-25 01:33N 42°20' W 070°58'0 0.1
2016-May-25 00:33N 42°20' W 070°58'0 0.1
2016-May-24 23:33N 42°20' W 070°58'0 0.0
2016-May-24 22:32N 42°20' W 070°58'0 0.0
2016-May-24 21:32N 42°20' W 070°58'0 0.1
2016-May-24 20:31N 42°20' W 070°58'0 0.0
2016-May-24 19:31N 42°20' W 070°58'0 0.0
2016-May-24 18:33N 42°20' W 070°58'0 0.0
2016-May-24 17:33N 42°20' W 070°58'0 0.0
2016-May-24 16:33N 42°20' W 070°58'0 0.1
2016-May-24 15:32N 42°20' W 070°58'0 0.0
2016-May-24 14:32N 42°20' W 070°58'0 0.0
2016-May-24 13:31N 42°20' W 070°58'0 0.0
2016-May-24 12:31N 42°20' W 070°58'0 0.1
2016-May-24 11:33N 42°20' W 070°58'0 0.1
2016-May-24 10:33N 42°20' W 070°58'0 0.0
2016-May-24 09:33N 42°20' W 070°58'0 0.1
2016-May-24 08:32N 42°20' W 070°58'0 0.0
2016-May-24 07:32N 42°20' W 070°58'0 0.0
2016-May-24 06:31N 42°20' W 070°58'0 0.1
2016-May-24 05:31N 42°20' W 070°58'0 0.1
2016-May-24 04:33N 42°20' W 070°58'0 0.0
2016-May-24 03:33N 42°20' W 070°58'0 0.0
2016-May-24 02:33N 42°20' W 070°58'0 0.0
2016-May-24 01:32N 42°20' W 070°58'0 0.0
2016-May-24 00:32N 42°20' W 070°58'0 0.2
2016-May-23 23:28N 42°20' W 070°58'0 0.0
2016-May-23 22:28N 42°20' W 070°58'0 0.1
2016-May-23 21:33N 42°20' W 070°58'0 0.0
2016-May-23 20:33N 42°20' W 070°58'0 0.1
2016-May-23 19:32N 42°20' W 070°58'0 0.1
2016-May-23 18:32N 42°20' W 070°58'0 0.1
2016-May-23 17:32N 42°20' W 070°58'0 0.0
2016-May-23 16:31N 42°20' W 070°58'0 0.0
2016-May-23 15:31N 42°20' W 070°58'3 3.0
2016-May-23 14:33N 42°22' W 070°55'1110.8
2016-May-23 13:33N 42°28' W 070°43'1313.4
2016-May-23 12:33N 42°35' W 070°28'1313.2
2016-May-23 11:33N 42°43' W 070°13'1313.4
2016-May-23 10:33N 42°50' W 069°57'  
Track history (hours):
 
Tides and Currents Weather Stations Pressure Air Temp Water Temp Dewpoint Dewpoint Depression Visibility Wind Speed Wind Dir Waves Ship Positions

New England

Last reported at 2016-May-26 22:13 UTC. Time now 2016-May-27 00:26 UTC.
Position N 42°23' W 071°01'.

Length 182 m; draft 10.7 m.

Type: Ship. MMSI: 538002220.

Date/timePositionNaut miles runAvg speedWind from/ knotsBaromVisibWave heightAir tempDewpointWater temp
2016-May-26 22:13N 42°23' W 071°01'0 0.0
2016-May-26 21:31N 42°23' W 071°01'0 0.0
2016-May-26 20:31N 42°23' W 071°01'0 0.0
2016-May-26 19:30N 42°23' W 071°01'0 0.0
2016-May-26 18:30N 42°23' W 071°01'0 0.0
2016-May-26 17:29N 42°23' W 071°01'0 0.0
2016-May-26 16:29N 42°23' W 071°01'0 0.0
2016-May-26 15:22N 42°23' W 071°01'0 0.0
2016-May-26 14:28N 42°23' W 071°01'0 0.0
2016-May-26 13:28N 42°23' W 071°01'0 0.0
2016-May-26 12:33N 42°23' W 071°01'0 0.0
2016-May-26 11:33N 42°23' W 071°01'0 0.0
2016-May-26 10:32N 42°23' W 071°01'1 0.1
2016-May-26 01:16N 42°24' W 071°01'0 0.0
2016-May-26 00:21N 42°24' W 071°01'0 0.0
2016-May-25 23:33N 42°24' W 071°01'0 0.0
2016-May-25 22:33N 42°24' W 071°01'0 0.0
2016-May-25 21:32N 42°24' W 071°01'0 0.0
2016-May-25 20:14N 42°24' W 071°01'0 0.0
2016-May-25 19:24N 42°24' W 071°01'0 0.0
2016-May-25 18:31N 42°24' W 071°01'0 0.0
2016-May-25 17:25N 42°24' W 071°01'0 0.5
2016-May-25 16:33N 42°23' W 071°01'4 3.8
2016-May-25 15:33N 42°20' W 070°59'1 0.7
2016-May-25 14:33N 42°20' W 070°58'0 0.0
2016-May-25 13:33N 42°20' W 070°58'0 0.2
2016-May-25 12:32N 42°20' W 070°58'0 0.0
2016-May-25 11:26N 42°20' W 070°58'0 0.0
2016-May-25 10:28N 42°20' W 070°58'0 0.0
2016-May-25 09:31N 42°20' W 070°58'0 0.0
2016-May-25 08:33N 42°20' W 070°58'0 0.0
2016-May-25 07:33N 42°20' W 070°58'0 0.1
2016-May-25 06:33N 42°20' W 070°58'0 0.0
2016-May-25 05:32N 42°20' W 070°58'0 0.0
2016-May-25 04:32N 42°20' W 070°58'0 0.0
2016-May-25 03:31N 42°20' W 070°58'0 0.0
2016-May-25 02:31N 42°20' W 070°58'0 0.0
2016-May-25 01:33N 42°20' W 070°58'0 0.1
2016-May-25 00:33N 42°20' W 070°58'0 0.1
2016-May-24 23:33N 42°20' W 070°58'0 0.0
2016-May-24 22:32N 42°20' W 070°58'0 0.0
2016-May-24 21:32N 42°20' W 070°58'0 0.1
2016-May-24 20:31N 42°20' W 070°58'0 0.0
2016-May-24 19:31N 42°20' W 070°58'0 0.0
2016-May-24 18:33N 42°20' W 070°58'0 0.0
2016-May-24 17:33N 42°20' W 070°58'0 0.0
2016-May-24 16:33N 42°20' W 070°58'0 0.1
2016-May-24 15:32N 42°20' W 070°58'0 0.0
2016-May-24 14:32N 42°20' W 070°58'0 0.0
2016-May-24 13:31N 42°20' W 070°58'0 0.0
2016-May-24 12:31N 42°20' W 070°58'0 0.1
2016-May-24 11:33N 42°20' W 070°58'0 0.1
2016-May-24 10:33N 42°20' W 070°58'0 0.0
2016-May-24 09:33N 42°20' W 070°58'0 0.1
2016-May-24 08:32N 42°20' W 070°58'0 0.0
2016-May-24 07:32N 42°20' W 070°58'0 0.0
2016-May-24 06:31N 42°20' W 070°58'0 0.1
2016-May-24 05:31N 42°20' W 070°58'0 0.1
2016-May-24 04:33N 42°20' W 070°58'0 0.0
2016-May-24 03:33N 42°20' W 070°58'0 0.0
2016-May-24 02:33N 42°20' W 070°58'0 0.0
2016-May-24 01:32N 42°20' W 070°58'0 0.0
2016-May-24 00:32N 42°20' W 070°58'0 0.2
2016-May-23 23:28N 42°20' W 070°58'0 0.0
2016-May-23 22:28N 42°20' W 070°58'0 0.1
2016-May-23 21:33N 42°20' W 070°58'0 0.0
2016-May-23 20:33N 42°20' W 070°58'0 0.1
2016-May-23 19:32N 42°20' W 070°58'0 0.1
2016-May-23 18:32N 42°20' W 070°58'0 0.1
2016-May-23 17:32N 42°20' W 070°58'0 0.0
2016-May-23 16:31N 42°20' W 070°58'0 0.0
2016-May-23 15:31N 42°20' W 070°58'3 3.0
2016-May-23 14:33N 42°22' W 070°55'1110.8
2016-May-23 13:33N 42°28' W 070°43'1313.4
2016-May-23 12:33N 42°35' W 070°28'1313.2
2016-May-23 11:33N 42°43' W 070°13'1313.4
2016-May-23 10:33N 42°50' W 069°57'  

Dump ship's entire track history